Nearby METAR Reports

 

EGAA - Belfast International Airport
Distance from station: W 19.6km
Updated: 19/07/2018 11:50
Few Clouds
Few Clouds
 Wind from W
Wind: W 9 km/h
Temperature: 18°C
Dew Point: 8°C
Humidity: 52%
Barometer: 1020 hPa
Clouds: Few Clouds
Visibility: 10 km
Cloud details: Few Clouds 914 m
2018/07/19 10:50 EGAA 191050Z 27005KT 190V330 9999 FEW030 18/08 Q1020
EGAC - George Best Belfast City Airport
Distance from station: SE 6.4km
Updated: 19/07/2018 11:50
Mostly cloudy
Mostly cloudy
 Wind from NNE
Wind: NNE 9 km/h
Temperature: 19°C
Dew Point: 8°C
Humidity: 49%
Barometer: 1019 hPa
Clouds: Mostly cloudy
Visibility: 10 km
Cloud details: Mostly cloudy 1097 m
Mostly cloudy 1402 m
2018/07/19 10:50 EGAC 191050Z AUTO 02005KT 9999 BKN036/// BKN046/// 19/08 Q1019